createdAt,value
2017-12-21T00:00:47.716Z,6.6
2017-12-21T00:01:50.210Z,6.6
2017-12-21T00:02:52.987Z,6.6
2017-12-21T00:03:55.497Z,6.6
2017-12-21T00:04:58.283Z,6.6
2017-12-21T00:06:00.777Z,6.6
2017-12-21T00:07:03.266Z,6.6
2017-12-21T00:08:05.779Z,6.6
2017-12-21T00:09:08.274Z,6.6
2017-12-21T00:10:10.764Z,6.6
2017-12-21T00:11:13.259Z,6.6
2017-12-21T00:12:15.753Z,6.6
2017-12-21T00:13:18.250Z,6.6
2017-12-21T00:14:20.754Z,6.6
2017-12-21T00:15:23.225Z,6.6
2017-12-21T00:16:26.006Z,6.6
2017-12-21T00:17:28.505Z,6.7
2017-12-21T00:18:31.008Z,6.6
2017-12-21T00:19:33.497Z,6.6
2017-12-21T00:20:35.994Z,6.6
2017-12-21T00:21:38.480Z,6.6
2017-12-21T00:22:40.992Z,6.6
2017-12-21T00:23:43.482Z,6.6
2017-12-21T00:24:45.975Z,6.6
2017-12-21T00:25:48.466Z,6.6
2017-12-21T00:26:50.960Z,6.6
2017-12-21T00:27:53.463Z,6.6
2017-12-21T00:28:55.955Z,6.6
2017-12-21T00:29:58.437Z,6.6
2017-12-21T00:31:00.934Z,6.6
2017-12-21T00:32:03.435Z,6.6
2017-12-21T00:33:05.931Z,6.7
2017-12-21T00:34:08.708Z,6.6
2017-12-21T00:35:11.207Z,6.6
2017-12-21T00:36:13.705Z,6.6
2017-12-21T00:37:16.198Z,6.6
2017-12-21T00:38:18.685Z,6.6
2017-12-21T00:39:21.194Z,6.6
2017-12-21T00:40:23.677Z,6.6
2017-12-21T00:41:26.171Z,6.7
2017-12-21T00:42:28.678Z,6.6
2017-12-21T00:43:31.456Z,6.6
2017-12-21T00:44:33.942Z,6.6
2017-12-21T00:45:36.443Z,6.6
2017-12-21T00:46:38.930Z,6.6
2017-12-21T00:47:41.432Z,6.6
2017-12-21T00:48:43.928Z,6.6
2017-12-21T00:49:46.422Z,6.6
2017-12-21T00:50:48.916Z,6.6
2017-12-21T00:51:51.411Z,6.6
2017-12-21T00:52:53.906Z,6.6
2017-12-21T00:53:56.696Z,6.6
2017-12-21T00:54:59.469Z,6.6
2017-12-21T00:56:02.539Z,6.7
2017-12-21T00:57:05.037Z,6.6
2017-12-21T00:58:07.523Z,6.7
2017-12-21T00:59:10.018Z,6.7
2017-12-21T01:00:12.515Z,6.7
2017-12-21T01:01:15.302Z,6.7
2017-12-21T01:02:17.803Z,6.6
2017-12-21T01:03:20.299Z,6.7
2017-12-21T01:04:23.093Z,6.7
2017-12-21T01:05:25.881Z,6.7
2017-12-21T01:06:28.376Z,6.6
2017-12-21T01:07:30.882Z,6.6
2017-12-21T01:08:33.367Z,6.7
2017-12-21T01:09:35.861Z,6.7
2017-12-21T01:10:38.373Z,6.7
2017-12-21T01:11:40.859Z,6.7
2017-12-21T01:12:43.371Z,6.7
2017-12-21T01:13:45.861Z,6.7
2017-12-21T01:14:48.341Z,6.7
2017-12-21T01:15:50.839Z,6.7
2017-12-21T01:16:53.624Z,6.7
2017-12-21T01:17:56.113Z,6.6
2017-12-21T01:18:58.619Z,6.6
2017-12-21T01:20:01.093Z,6.6
2017-12-21T01:21:03.593Z,6.6
2017-12-21T01:22:06.091Z,6.7
2017-12-21T01:23:08.583Z,6.6
2017-12-21T01:24:11.077Z,6.6
2017-12-21T01:25:13.569Z,6.6
2017-12-21T01:26:16.055Z,6.6
2017-12-21T01:27:18.558Z,6.7
2017-12-21T01:28:21.052Z,6.7
2017-12-21T01:29:23.539Z,6.6
2017-12-21T01:30:26.042Z,6.6
2017-12-21T01:31:28.538Z,6.7
2017-12-21T01:32:31.033Z,6.7
2017-12-21T01:33:33.531Z,6.7
2017-12-21T01:34:36.022Z,6.6
2017-12-21T01:35:38.514Z,6.6
2017-12-21T01:36:41.018Z,6.7
2017-12-21T01:37:43.515Z,6.7
2017-12-21T01:38:46.567Z,6.7
2017-12-21T01:39:49.065Z,6.7
2017-12-21T01:40:51.566Z,6.6
2017-12-21T01:41:54.062Z,6.7
2017-12-21T01:42:56.557Z,6.7
2017-12-21T01:43:59.054Z,6.7
2017-12-21T01:45:01.844Z,6.7
2017-12-21T01:46:04.351Z,6.7
2017-12-21T01:47:06.845Z,6.7
2017-12-21T01:48:09.328Z,6.7
2017-12-21T01:49:11.828Z,6.7
2017-12-21T01:50:14.322Z,6.7
2017-12-21T01:51:16.830Z,6.7
2017-12-21T01:52:19.610Z,6.7
2017-12-21T01:53:22.094Z,6.7
2017-12-21T01:54:24.588Z,6.7
2017-12-21T01:55:27.090Z,6.7
2017-12-21T01:56:29.584Z,6.7
2017-12-21T01:57:32.079Z,6.7
2017-12-21T01:58:34.562Z,6.7
2017-12-21T01:59:37.056Z,6.7
2017-12-21T02:00:39.567Z,6.7
2017-12-21T02:01:42.057Z,6.7
2017-12-21T02:02:44.826Z,6.7
2017-12-21T02:03:47.606Z,6.7
2017-12-21T02:04:50.103Z,6.8
2017-12-21T02:05:52.592Z,6.8
2017-12-21T02:06:55.089Z,6.8
2017-12-21T02:07:57.579Z,6.8
2017-12-21T02:09:00.075Z,6.8
2017-12-21T02:10:02.556Z,6.8
2017-12-21T02:11:05.067Z,6.8
2017-12-21T02:12:07.555Z,6.8
2017-12-21T02:13:10.052Z,6.8
2017-12-21T02:14:12.549Z,6.8
2017-12-21T02:15:15.042Z,6.8
2017-12-21T02:16:17.541Z,6.8
2017-12-21T02:17:20.047Z,6.8
2017-12-21T02:18:22.528Z,6.8
2017-12-21T02:19:25.036Z,6.8
2017-12-21T02:20:27.524Z,6.8
2017-12-21T02:21:30.327Z,6.8
2017-12-21T02:22:32.821Z,6.8
2017-12-21T02:23:35.319Z,6.8
2017-12-21T02:24:37.804Z,6.8
2017-12-21T02:25:40.607Z,6.8
2017-12-21T02:26:43.081Z,6.8
2017-12-21T02:27:45.584Z,6.8
2017-12-21T02:28:48.078Z,6.8
2017-12-21T02:29:50.571Z,6.8
2017-12-21T02:30:53.066Z,6.8
2017-12-21T02:31:55.562Z,6.8
2017-12-21T02:32:58.051Z,6.9
2017-12-21T02:34:00.550Z,6.9
2017-12-21T02:35:03.045Z,6.8
2017-12-21T02:36:05.858Z,6.9
2017-12-21T02:37:08.327Z,6.9
2017-12-21T02:38:10.826Z,6.9
2017-12-21T02:39:13.310Z,6.9
2017-12-21T02:40:16.098Z,6.9
2017-12-21T02:41:18.595Z,6.9
2017-12-21T02:42:21.089Z,6.9
2017-12-21T02:43:23.573Z,6.9
2017-12-21T02:44:26.078Z,6.9
2017-12-21T02:45:28.571Z,6.9
2017-12-21T02:46:31.075Z,6.9
2017-12-21T02:47:33.592Z,6.9
2017-12-21T02:48:36.405Z,6.9
2017-12-21T02:49:38.906Z,6.9
2017-12-21T02:50:41.432Z,7
2017-12-21T02:51:43.910Z,6.9
2017-12-21T02:52:46.988Z,7
2017-12-21T02:53:49.475Z,6.9
2017-12-21T02:54:51.984Z,6.9
2017-12-21T02:55:54.475Z,6.9
2017-12-21T02:56:56.972Z,6.9
2017-12-21T02:57:59.747Z,6.9
2017-12-21T02:59:02.244Z,6.9
2017-12-21T03:00:05.030Z,6.9
2017-12-21T03:01:07.528Z,6.9
2017-12-21T03:02:10.009Z,6.9
2017-12-21T03:03:12.496Z,7
2017-12-21T03:04:15.152Z,6.9
2017-12-21T03:05:17.647Z,7
2017-12-21T03:06:20.136Z,7
2017-12-21T03:07:22.628Z,7
2017-12-21T03:08:25.111Z,7
2017-12-21T03:09:27.603Z,7
2017-12-21T03:10:30.110Z,7
2017-12-21T03:11:33.188Z,7
2017-12-21T03:12:35.688Z,7
2017-12-21T03:13:38.190Z,7
2017-12-21T03:14:40.684Z,7
2017-12-21T03:15:43.194Z,7
2017-12-21T03:16:45.683Z,7
2017-12-21T03:17:48.173Z,7
2017-12-21T03:18:50.671Z,6.9
2017-12-21T03:19:53.168Z,7
2017-12-21T03:20:55.663Z,7
2017-12-21T03:21:58.452Z,7
2017-12-21T03:23:00.947Z,7
2017-12-21T03:24:03.736Z,7
2017-12-21T03:25:06.243Z,7
2017-12-21T03:26:09.010Z,7
2017-12-21T03:27:11.506Z,7
2017-12-21T03:28:14.294Z,7.1
2017-12-21T03:29:16.793Z,7.1
2017-12-21T03:30:19.587Z,7.1
2017-12-21T03:31:22.379Z,7.1
2017-12-21T03:32:24.875Z,7.1
2017-12-21T03:33:27.667Z,7.1
2017-12-21T03:34:30.155Z,7.1
2017-12-21T03:35:32.652Z,7.1
2017-12-21T03:36:35.145Z,7.1
2017-12-21T03:37:37.637Z,7.1
2017-12-21T03:38:40.134Z,7.1
2017-12-21T03:39:42.628Z,7.1
2017-12-21T03:40:45.122Z,7.1
2017-12-21T03:41:47.620Z,7.1
2017-12-21T03:42:50.105Z,7.1
2017-12-21T03:43:52.602Z,7.1
2017-12-21T03:44:55.106Z,7.1
2017-12-21T03:45:57.644Z,7.2
2017-12-21T03:47:00.088Z,7.2
2017-12-21T03:48:02.587Z,7.1
2017-12-21T03:49:05.074Z,7.2
2017-12-21T03:50:07.585Z,7.2
2017-12-21T03:51:10.074Z,7.2
2017-12-21T03:52:12.568Z,7.1
2017-12-21T03:53:15.069Z,7.2
2017-12-21T03:54:17.557Z,7.1
2017-12-21T03:55:20.055Z,7.1
2017-12-21T03:56:22.557Z,7.2
2017-12-21T03:57:25.040Z,7.2
2017-12-21T03:58:27.537Z,7.2
2017-12-21T03:59:30.620Z,7.2
2017-12-21T04:00:33.111Z,7.2
2017-12-21T04:01:35.599Z,7.2
2017-12-21T04:02:38.095Z,7.2
2017-12-21T04:03:40.883Z,7.2
2017-12-21T04:04:43.663Z,7.2
2017-12-21T04:05:46.155Z,7.2
2017-12-21T04:06:48.658Z,7.2
2017-12-21T04:07:51.149Z,7.2
2017-12-21T04:08:53.638Z,7.2
2017-12-21T04:09:56.447Z,7.2
2017-12-21T04:10:58.935Z,7.2
2017-12-21T04:12:01.425Z,7.3
2017-12-21T04:13:03.920Z,7.2
2017-12-21T04:14:06.414Z,7.2
2017-12-21T04:15:08.908Z,7.2
2017-12-21T04:16:11.423Z,7.2
2017-12-21T04:17:13.913Z,7.2
2017-12-21T04:18:16.700Z,7.2
2017-12-21T04:19:19.195Z,7.2
2017-12-21T04:20:21.689Z,7.3
2017-12-21T04:21:24.198Z,7.3
2017-12-21T04:22:26.697Z,7.3
2017-12-21T04:23:29.467Z,7.2
2017-12-21T04:24:31.968Z,7.2
2017-12-21T04:25:34.454Z,7.2
2017-12-21T04:26:36.946Z,7.2
2017-12-21T04:27:39.444Z,7.3
2017-12-21T04:28:41.928Z,7.3
2017-12-21T04:29:44.417Z,7.3
2017-12-21T04:30:46.927Z,7.3
2017-12-21T04:31:50.005Z,7.3
2017-12-21T04:32:52.488Z,7.3
2017-12-21T04:33:54.979Z,7.3
2017-12-21T04:34:57.487Z,7.3
2017-12-21T04:36:00.273Z,7.3
2017-12-21T04:37:02.767Z,7.3
2017-12-21T04:38:05.265Z,7.3
2017-12-21T04:39:07.750Z,7.3
2017-12-21T04:40:10.256Z,7.3
2017-12-21T04:41:12.757Z,7.3
2017-12-21T04:42:15.536Z,7.3
2017-12-21T04:43:18.041Z,7.3
2017-12-21T04:44:20.535Z,7.3
2017-12-21T04:45:23.325Z,7.3
2017-12-21T04:46:25.832Z,7.4
2017-12-21T04:47:28.312Z,7.3
2017-12-21T04:48:30.812Z,7.4
2017-12-21T04:49:33.320Z,7.4
2017-12-21T04:50:36.109Z,7.4
2017-12-21T04:51:38.607Z,7.4
2017-12-21T04:52:41.105Z,7.4
2017-12-21T04:53:43.596Z,7.4
2017-12-21T04:54:46.095Z,7.4
2017-12-21T04:55:48.590Z,7.4
2017-12-21T04:56:51.072Z,7.3
2017-12-21T04:57:53.570Z,7.3
2017-12-21T04:58:56.061Z,7.4
2017-12-21T04:59:58.564Z,7.4
2017-12-21T05:01:01.055Z,7.4
2017-12-21T05:02:03.863Z,7.4
2017-12-21T05:03:06.356Z,7.4
2017-12-21T05:04:08.843Z,7.4
2017-12-21T05:05:11.340Z,7.4
2017-12-21T05:06:13.845Z,7.4
2017-12-21T05:07:16.334Z,7.4
2017-12-21T05:08:19.114Z,7.4
2017-12-21T05:09:21.617Z,7.5
2017-12-21T05:10:24.107Z,7.5
2017-12-21T05:11:26.598Z,7.4
2017-12-21T05:12:29.104Z,7.5
2017-12-21T05:13:31.586Z,7.4
2017-12-21T05:14:34.088Z,7.4
2017-12-21T05:15:36.587Z,7.4
2017-12-21T05:16:39.083Z,7.4
2017-12-21T05:17:41.887Z,7.4
2017-12-21T05:18:44.383Z,7.5
2017-12-21T05:19:46.874Z,7.5
2017-12-21T05:20:49.383Z,7.5
2017-12-21T05:21:51.879Z,7.5
2017-12-21T05:22:54.368Z,7.5
2017-12-21T05:23:57.469Z,7.5
2017-12-21T05:24:59.959Z,7.5
2017-12-21T05:26:02.451Z,7.5
2017-12-21T05:27:04.952Z,7.4
2017-12-21T05:28:07.436Z,7.5
2017-12-21T05:29:09.940Z,7.5
2017-12-21T05:30:12.715Z,7.5
2017-12-21T05:31:15.201Z,7.5
2017-12-21T05:32:17.714Z,7.5
2017-12-21T05:33:20.213Z,7.5
2017-12-21T05:34:22.704Z,7.5
2017-12-21T05:35:25.196Z,7.5
2017-12-21T05:36:27.696Z,7.5
2017-12-21T05:37:30.194Z,7.5
2017-12-21T05:38:32.701Z,7.5
2017-12-21T05:39:35.472Z,7.5
2017-12-21T05:40:37.967Z,7.5
2017-12-21T05:41:40.758Z,7.5
2017-12-21T05:42:43.252Z,7.5
2017-12-21T05:43:45.744Z,7.5
2017-12-21T05:44:48.240Z,7.5
2017-12-21T05:45:50.731Z,7.5
2017-12-21T05:46:53.241Z,7.5
2017-12-21T05:47:55.732Z,7.5
2017-12-21T05:48:58.232Z,7.5
2017-12-21T05:50:00.719Z,7.5
2017-12-21T05:51:03.222Z,7.6
2017-12-21T05:52:05.715Z,7.5
2017-12-21T05:53:08.222Z,7.5
2017-12-21T05:54:10.988Z,7.5
2017-12-21T05:55:13.497Z,7.5
2017-12-21T05:56:16.000Z,7.5
2017-12-21T05:57:18.494Z,7.5
2017-12-21T05:58:20.988Z,7.5
2017-12-21T05:59:23.480Z,7.5
2017-12-21T06:00:25.975Z,7.5
2017-12-21T06:01:28.474Z,7.5
2017-12-21T06:02:30.962Z,7.5
2017-12-21T06:03:33.469Z,7.5
2017-12-21T06:04:35.967Z,7.5
2017-12-21T06:05:38.448Z,7.5
2017-12-21T06:06:40.952Z,7.5
2017-12-21T06:07:43.456Z,7.5
2017-12-21T06:08:46.245Z,7.5
2017-12-21T06:09:48.741Z,7.5
2017-12-21T06:10:51.527Z,7.5
2017-12-21T06:11:54.016Z,7.5
2017-12-21T06:12:56.527Z,7.5
2017-12-21T06:13:59.025Z,7.5
2017-12-21T06:15:01.510Z,7.5
2017-12-21T06:16:04.012Z,7.5
2017-12-21T06:17:06.502Z,7.5
2017-12-21T06:18:09.004Z,7.5
2017-12-21T06:19:11.498Z,7.5
2017-12-21T06:20:13.981Z,7.4
2017-12-21T06:21:16.478Z,7.4
2017-12-21T06:22:18.977Z,7.5
2017-12-21T06:23:21.479Z,7.5
2017-12-21T06:24:23.971Z,7.5
2017-12-21T06:25:26.473Z,7.5
2017-12-21T06:26:28.968Z,7.5
2017-12-21T06:27:31.777Z,7.5
2017-12-21T06:28:34.271Z,7.4
2017-12-21T06:29:36.751Z,7.4
2017-12-21T06:30:39.244Z,7.4
2017-12-21T06:31:41.747Z,7.4
2017-12-21T06:32:44.243Z,7.4
2017-12-21T06:33:46.739Z,7.4
2017-12-21T06:34:49.238Z,7.4
2017-12-21T06:35:51.785Z,7.4
2017-12-21T06:36:54.235Z,7.4
2017-12-21T06:37:56.737Z,7.4
2017-12-21T06:38:59.224Z,7.4
2017-12-21T06:40:01.722Z,7.4
2017-12-21T06:41:04.226Z,7.4
2017-12-21T06:42:06.707Z,7.4
2017-12-21T06:43:09.491Z,7.4
2017-12-21T06:44:11.987Z,7.4
2017-12-21T06:45:14.775Z,7.4
2017-12-21T06:46:17.284Z,7.4
2017-12-21T06:47:20.072Z,7.4
2017-12-21T06:48:22.564Z,7.4
2017-12-21T06:49:25.064Z,7.4
2017-12-21T06:50:27.562Z,7.4
2017-12-21T06:51:30.058Z,7.4
2017-12-21T06:52:32.568Z,7.4
2017-12-21T06:53:35.049Z,7.4
2017-12-21T06:54:37.549Z,7.4
2017-12-21T06:55:40.347Z,7.4
2017-12-21T06:56:42.839Z,7.4
2017-12-21T06:57:45.338Z,7.4
2017-12-21T06:58:47.836Z,7.4
2017-12-21T06:59:50.331Z,7.4
2017-12-21T07:00:52.828Z,7.4
2017-12-21T07:01:55.616Z,7.4
2017-12-21T07:02:58.132Z,7.4
2017-12-21T07:04:00.618Z,7.4
2017-12-21T07:05:03.121Z,7.4
2017-12-21T07:06:05.635Z,7.3
2017-12-21T07:07:08.134Z,7.3
2017-12-21T07:08:10.626Z,7.4
2017-12-21T07:09:13.123Z,7.4
2017-12-21T07:10:15.610Z,7.4
2017-12-21T07:11:18.120Z,7.4
2017-12-21T07:12:20.618Z,7.4
2017-12-21T07:13:23.124Z,7.4
2017-12-21T07:14:25.616Z,7.3
2017-12-21T07:15:28.113Z,7.3
2017-12-21T07:16:30.606Z,7.3
2017-12-21T07:17:33.407Z,7.3
2017-12-21T07:18:35.895Z,7.4
2017-12-21T07:19:38.399Z,7.4
2017-12-21T07:20:40.892Z,7.3
2017-12-21T07:21:43.387Z,7.3
2017-12-21T07:22:45.878Z,7.3
2017-12-21T07:23:48.378Z,7.3
2017-12-21T07:24:50.862Z,7.3
2017-12-21T07:25:53.363Z,7.3
2017-12-21T07:26:55.870Z,7.3
2017-12-21T07:27:58.377Z,7.3
2017-12-21T07:29:00.870Z,7.3
2017-12-21T07:30:03.374Z,7.4
2017-12-21T07:31:05.869Z,7.3
2017-12-21T07:32:08.661Z,7.3
2017-12-21T07:33:11.157Z,7.3
2017-12-21T07:34:13.658Z,7.3
2017-12-21T07:35:16.142Z,7.3
2017-12-21T07:36:18.632Z,7.3
2017-12-21T07:37:21.128Z,7.3
2017-12-21T07:38:23.631Z,7.3
2017-12-21T07:39:26.126Z,7.3
2017-12-21T07:40:28.646Z,7.3
2017-12-21T07:41:31.192Z,7.3
2017-12-21T07:42:33.699Z,7.3
2017-12-21T07:43:36.481Z,7.3
2017-12-21T07:44:38.977Z,7.3
2017-12-21T07:45:41.491Z,7.3
2017-12-21T07:46:43.995Z,7.3
2017-12-21T07:47:46.495Z,7.3
2017-12-21T07:48:48.992Z,7.3
2017-12-21T07:49:51.499Z,7.3
2017-12-21T07:50:53.997Z,7.4
2017-12-21T07:51:56.504Z,7.3
2017-12-21T07:52:58.984Z,7.3
2017-12-21T07:54:01.493Z,7.3
2017-12-21T07:55:03.997Z,7.3
2017-12-21T07:56:06.779Z,7.4
2017-12-21T07:57:09.280Z,7.3
2017-12-21T07:58:11.777Z,7.3
2017-12-21T07:59:14.579Z,7.3
2017-12-21T08:00:17.058Z,7.3
2017-12-21T08:01:19.567Z,7.3
2017-12-21T08:02:22.355Z,7.3
2017-12-21T08:03:24.856Z,7.2
2017-12-21T08:04:27.358Z,7.2
2017-12-21T08:05:29.856Z,7.2
2017-12-21T08:06:32.360Z,7.2
2017-12-21T08:07:34.871Z,7.2
2017-12-21T08:08:37.372Z,7.2
2017-12-21T08:09:40.151Z,7.2
2017-12-21T08:10:42.995Z,7.2
2017-12-21T08:11:45.494Z,7.2
2017-12-21T08:12:47.997Z,7.2
2017-12-21T08:13:50.788Z,7.1
2017-12-21T08:14:53.284Z,7.2
2017-12-21T08:15:55.778Z,7.2
2017-12-21T08:16:58.283Z,7.1
2017-12-21T08:18:00.783Z,7.1
2017-12-21T08:19:03.281Z,7.1
2017-12-21T08:20:06.072Z,7.1
2017-12-21T08:21:08.879Z,7.1
2017-12-21T08:22:11.372Z,7.2
2017-12-21T08:23:14.187Z,7.2
2017-12-21T08:24:16.685Z,7.2
2017-12-21T08:25:19.480Z,7.2
2017-12-21T08:26:21.987Z,7.1
2017-12-21T08:27:24.483Z,7.2
2017-12-21T08:28:27.255Z,7.2
2017-12-21T08:29:29.758Z,7.2
2017-12-21T08:30:32.250Z,7.2
2017-12-21T08:31:34.754Z,7.2
2017-12-21T08:32:37.237Z,7.2
2017-12-21T08:33:39.758Z,7.2
2017-12-21T08:34:42.252Z,7.2
2017-12-21T08:35:44.740Z,7.2
2017-12-21T08:36:47.243Z,7.2
2017-12-21T08:37:50.326Z,7.2
2017-12-21T08:38:53.071Z,7.2
2017-12-21T08:39:55.688Z,7.2
2017-12-21T08:40:58.174Z,7.1
2017-12-21T08:42:00.676Z,7.1
2017-12-21T08:43:03.182Z,7.1
2017-12-21T08:44:05.667Z,7.1
2017-12-21T08:45:08.466Z,7.1
2017-12-21T08:46:11.243Z,7.1
2017-12-21T08:47:13.736Z,7.1
2017-12-21T08:48:16.235Z,7.1
2017-12-21T08:49:19.023Z,7.1
2017-12-21T08:50:21.512Z,7.1
2017-12-21T08:51:24.027Z,7.1
2017-12-21T08:52:26.499Z,7.1
2017-12-21T08:53:29.005Z,7.1
2017-12-21T08:54:31.792Z,7.1
2017-12-21T08:55:34.295Z,7.1
2017-12-21T08:56:36.790Z,7.1
2017-12-21T08:57:39.283Z,7.2
2017-12-21T08:58:41.779Z,7.1
2017-12-21T08:59:44.268Z,7.1
2017-12-21T09:00:46.766Z,7.1
2017-12-21T09:01:49.260Z,7.1
2017-12-21T09:02:52.048Z,7.1
2017-12-21T09:03:54.542Z,7.1
2017-12-21T09:04:57.053Z,7.2
2017-12-21T09:05:59.543Z,7.3
2017-12-21T09:07:02.318Z,7.3
2017-12-21T09:08:04.834Z,7.2
2017-12-21T09:09:07.394Z,7.2
2017-12-21T09:10:09.885Z,7.2
2017-12-21T09:11:12.679Z,7.1
2017-12-21T09:12:15.170Z,7.2
2017-12-21T09:13:17.666Z,7.1
2017-12-21T09:14:20.166Z,7.1
2017-12-21T09:15:22.655Z,7.3
2017-12-21T09:16:25.164Z,7.3
2017-12-21T09:17:27.668Z,7.2
2017-12-21T09:18:30.152Z,7.1
2017-12-21T09:19:32.658Z,7.1
2017-12-21T09:20:35.159Z,7.1
2017-12-21T09:21:37.652Z,7.2
2017-12-21T09:22:40.157Z,7.1
2017-12-21T09:23:42.639Z,7.1
2017-12-21T09:24:45.126Z,7.1
2017-12-21T09:25:47.643Z,7
2017-12-21T09:26:50.137Z,7.2
2017-12-21T09:27:52.915Z,7.1
2017-12-21T09:28:55.412Z,7.1
2017-12-21T09:29:57.902Z,7
2017-12-21T09:31:00.419Z,7
2017-12-21T09:32:03.200Z,7.1
2017-12-21T09:33:05.702Z,7
2017-12-21T09:34:08.199Z,7
2017-12-21T09:35:10.713Z,7
2017-12-21T09:36:13.208Z,7
2017-12-21T09:37:15.996Z,7.1
2017-12-21T09:38:18.488Z,7.1
2017-12-21T09:39:20.987Z,7.1
2017-12-21T09:40:23.488Z,7
2017-12-21T09:41:25.990Z,7.1
2017-12-21T09:42:28.768Z,7.1
2017-12-21T09:43:31.562Z,7.1
2017-12-21T09:44:34.049Z,7
2017-12-21T09:45:36.853Z,7.1
2017-12-21T09:46:39.358Z,7.1
2017-12-21T09:47:41.854Z,7.1
2017-12-21T09:48:44.670Z,7
2017-12-21T09:49:47.192Z,7.1
2017-12-21T09:50:49.676Z,7.2
2017-12-21T09:51:52.191Z,7.1
2017-12-21T09:52:54.685Z,7.2
2017-12-21T09:53:57.476Z,7.2
2017-12-21T09:54:59.980Z,7.3
2017-12-21T09:56:02.479Z,7.3
2017-12-21T09:57:04.974Z,7.3
2017-12-21T09:58:07.472Z,7.3
2017-12-21T09:59:09.978Z,7.3
2017-12-21T10:00:12.486Z,7.3
2017-12-21T10:01:14.981Z,7.2
2017-12-21T10:02:17.486Z,7.2
2017-12-21T10:03:19.986Z,7.2
2017-12-21T10:04:22.782Z,7.3
2017-12-21T10:05:25.284Z,7.3
2017-12-21T10:06:27.766Z,7.3
2017-12-21T10:07:30.268Z,7.2
2017-12-21T10:08:32.766Z,7.1
2017-12-21T10:09:35.271Z,7.1
2017-12-21T10:10:38.057Z,7.1
2017-12-21T10:11:40.557Z,7.2
2017-12-21T10:12:43.056Z,7.2
2017-12-21T10:13:45.858Z,7.2
2017-12-21T10:14:48.648Z,7.2
2017-12-21T10:15:51.128Z,7.1
2017-12-21T10:16:53.704Z,7.1
2017-12-21T10:17:56.502Z,7.2
2017-12-21T10:18:59.003Z,7.1
2017-12-21T10:20:01.502Z,7.2
2017-12-21T10:21:03.995Z,7.2
2017-12-21T10:22:06.787Z,7.4
2017-12-21T10:23:09.882Z,7.6
2017-12-21T10:24:12.380Z,7.7
2017-12-21T10:25:14.873Z,7.8
2017-12-21T10:26:17.382Z,7.9
2017-12-21T10:27:20.182Z,8.1
2017-12-21T10:28:22.680Z,8.1
2017-12-21T10:29:25.184Z,8.1
2017-12-21T10:30:27.700Z,8
2017-12-21T10:31:30.199Z,8.3
2017-12-21T10:32:32.692Z,8.5
2017-12-21T10:33:35.189Z,8.4
2017-12-21T10:34:37.700Z,8.6
2017-12-21T10:35:40.481Z,8.6
2017-12-21T10:36:42.983Z,8.9
2017-12-21T10:37:45.473Z,8.9
2017-12-21T10:38:47.980Z,9
2017-12-21T10:39:50.500Z,8.9
2017-12-21T10:40:53.001Z,8.7
2017-12-21T10:41:55.509Z,8.7
2017-12-21T10:42:58.003Z,8.6
2017-12-21T10:44:00.509Z,8.6
2017-12-21T10:45:03.011Z,8.5
2017-12-21T10:46:05.519Z,8.5
2017-12-21T10:47:08.013Z,8.4
2017-12-21T10:48:10.826Z,8.3
2017-12-21T10:49:13.351Z,8.2
2017-12-21T10:50:15.838Z,8.3
2017-12-21T10:51:18.380Z,8
2017-12-21T10:52:20.878Z,8.2
2017-12-21T10:53:23.376Z,8.1
2017-12-21T10:54:25.882Z,8.1
2017-12-21T10:55:28.388Z,8
2017-12-21T10:56:30.873Z,8
2017-12-21T10:57:33.388Z,7.9
2017-12-21T10:58:35.898Z,7.8
2017-12-21T10:59:38.389Z,7.8
2017-12-21T11:00:40.890Z,7.7
2017-12-21T11:01:43.722Z,7.8
2017-12-21T11:02:46.503Z,7.7
2017-12-21T11:03:48.991Z,7.7
2017-12-21T11:04:51.507Z,7.6
2017-12-21T11:05:54.291Z,7.6
2017-12-21T11:06:56.799Z,7.5
2017-12-21T11:07:59.301Z,7.5
2017-12-21T11:09:01.801Z,7.5
2017-12-21T11:10:04.880Z,7.3
2017-12-21T11:11:07.398Z,7.4
2017-12-21T11:12:10.174Z,7.4
2017-12-21T11:13:12.684Z,7.4
2017-12-21T11:14:15.179Z,7.3
2017-12-21T11:15:17.681Z,7.3
2017-12-21T11:16:20.176Z,7.2
2017-12-21T11:17:22.674Z,7.2
2017-12-21T11:18:25.467Z,7.2
2017-12-21T11:19:27.975Z,7.1
2017-12-21T11:20:30.762Z,7
2017-12-21T11:21:33.273Z,6.9
2017-12-21T11:22:35.764Z,7
2017-12-21T11:23:38.268Z,7
2017-12-21T11:24:40.761Z,7.1
2017-12-21T11:25:43.260Z,7
2017-12-21T11:26:45.762Z,6.9
2017-12-21T11:27:48.563Z,7
2017-12-21T11:28:51.060Z,6.9
2017-12-21T11:29:53.544Z,7
2017-12-21T11:30:56.348Z,6.9
2017-12-21T11:31:58.839Z,7
2017-12-21T11:33:01.649Z,7
2017-12-21T11:34:04.147Z,7
2017-12-21T11:35:06.643Z,6.8
2017-12-21T11:36:09.145Z,6.7
2017-12-21T11:37:11.654Z,6.8
2017-12-21T11:38:14.154Z,6.8
2017-12-21T11:39:16.982Z,6.8
2017-12-21T11:40:19.484Z,6.8
2017-12-21T11:41:21.988Z,6.8
2017-12-21T11:42:24.491Z,6.8
2017-12-21T11:43:26.994Z,6.7
2017-12-21T11:44:29.766Z,6.7
2017-12-21T11:45:32.280Z,6.7
2017-12-21T11:46:34.772Z,6.8
2017-12-21T11:47:37.349Z,6.8
2017-12-21T11:48:39.894Z,6.9
2017-12-21T11:49:42.393Z,6.8
2017-12-21T11:50:44.892Z,6.7
2017-12-21T11:51:47.696Z,6.7
2017-12-21T11:52:50.192Z,6.8
2017-12-21T11:53:52.686Z,6.8
2017-12-21T11:54:55.180Z,6.8
2017-12-21T11:55:57.684Z,6.8
2017-12-21T11:57:00.183Z,6.8
2017-12-21T11:58:03.269Z,6.8
2017-12-21T11:59:06.055Z,6.9
2017-12-21T12:00:08.556Z,6.8
2017-12-21T12:01:11.062Z,6.8
2017-12-21T12:02:13.565Z,6.8
2017-12-21T12:03:16.067Z,6.8
2017-12-21T12:04:18.558Z,6.8
2017-12-21T12:05:21.067Z,6.8
2017-12-21T12:06:23.565Z,6.8
2017-12-21T12:07:26.059Z,6.8
2017-12-21T12:08:28.556Z,6.8
2017-12-21T12:09:31.043Z,6.8
2017-12-21T12:10:33.544Z,6.8
2017-12-21T12:11:36.335Z,6.8
2017-12-21T12:12:38.825Z,6.8
2017-12-21T12:13:41.320Z,6.8
2017-12-21T12:14:43.828Z,6.9
2017-12-21T12:15:46.329Z,6.8
2017-12-21T12:16:48.827Z,6.8
2017-12-21T12:17:51.330Z,6.9
2017-12-21T12:18:54.120Z,6.8
2017-12-21T12:19:56.924Z,6.8
2017-12-21T12:20:59.419Z,6.8
2017-12-21T12:22:01.921Z,6.8
2017-12-21T12:23:04.405Z,6.8
2017-12-21T12:24:06.898Z,6.8
2017-12-21T12:25:09.406Z,6.7
2017-12-21T12:26:12.181Z,6.8
2017-12-21T12:27:14.683Z,6.8
2017-12-21T12:28:17.189Z,6.7
2017-12-21T12:29:19.666Z,6.7
2017-12-21T12:30:22.164Z,6.8
2017-12-21T12:31:24.672Z,6.7
2017-12-21T12:32:27.178Z,6.6
2017-12-21T12:33:29.963Z,6.7
2017-12-21T12:34:32.465Z,6.7
2017-12-21T12:35:35.247Z,6.6
2017-12-21T12:36:38.041Z,6.7
2017-12-21T12:37:40.542Z,6.6
2017-12-21T12:38:43.029Z,6.7
2017-12-21T12:39:45.534Z,6.6
2017-12-21T12:40:48.039Z,6.7
2017-12-21T12:41:50.536Z,6.7
2017-12-21T12:42:53.037Z,6.7
2017-12-21T12:43:55.525Z,6.7
2017-12-21T12:44:58.021Z,6.6
2017-12-21T12:46:00.819Z,6.5
2017-12-21T12:47:03.319Z,6.5
2017-12-21T12:48:05.816Z,6.5
2017-12-21T12:49:08.320Z,6.5
2017-12-21T12:50:10.809Z,6.5
2017-12-21T12:51:13.321Z,6.5
2017-12-21T12:52:15.814Z,6.5
2017-12-21T12:53:18.297Z,6.6
2017-12-21T12:54:20.801Z,6.6
2017-12-21T12:55:23.302Z,6.6
2017-12-21T12:56:26.097Z,6.6
2017-12-21T12:57:28.590Z,6.7
2017-12-21T12:58:31.082Z,6.7
2017-12-21T12:59:33.580Z,6.7
2017-12-21T13:00:36.085Z,6.7
2017-12-21T13:01:38.562Z,6.6
2017-12-21T13:02:41.075Z,6.7
2017-12-21T13:03:43.558Z,6.7
2017-12-21T13:04:46.060Z,6.7
2017-12-21T13:05:48.550Z,6.7
2017-12-21T13:06:51.049Z,6.7
2017-12-21T13:07:53.550Z,6.7
2017-12-21T13:08:56.050Z,6.7
2017-12-21T13:09:58.535Z,6.8
2017-12-21T13:11:01.040Z,6.8
2017-12-21T13:12:03.541Z,6.8
2017-12-21T13:13:06.329Z,6.8
2017-12-21T13:14:09.127Z,6.8
2017-12-21T13:15:11.611Z,6.8
2017-12-21T13:16:14.111Z,6.8
2017-12-21T13:17:16.912Z,6.8
2017-12-21T13:18:19.393Z,6.9
2017-12-21T13:19:21.889Z,6.8
2017-12-21T13:20:24.382Z,6.9
2017-12-21T13:21:26.884Z,6.8
2017-12-21T13:22:29.385Z,6.8
2017-12-21T13:23:31.885Z,6.8
2017-12-21T13:24:34.364Z,6.8
2017-12-21T13:25:37.168Z,6.8
2017-12-21T13:26:39.650Z,6.8
2017-12-21T13:27:42.151Z,6.9
2017-12-21T13:28:44.945Z,6.8
2017-12-21T13:29:47.442Z,6.7
2017-12-21T13:30:49.941Z,6.7
2017-12-21T13:31:52.442Z,6.7
2017-12-21T13:32:54.935Z,6.7
2017-12-21T13:33:57.444Z,6.7
2017-12-21T13:34:59.938Z,6.7
2017-12-21T13:36:02.412Z,6.7
2017-12-21T13:37:04.919Z,6.6
2017-12-21T13:38:07.705Z,6.6
2017-12-21T13:39:10.201Z,6.5
2017-12-21T13:40:12.701Z,6.5
2017-12-21T13:41:15.181Z,6.5
2017-12-21T13:42:17.680Z,6.5
2017-12-21T13:43:20.488Z,6.6
2017-12-21T13:44:22.979Z,6.6
2017-12-21T13:45:25.477Z,6.6
2017-12-21T13:46:27.970Z,6.6
2017-12-21T13:47:31.047Z,6.6
2017-12-21T13:48:33.550Z,6.5
2017-12-21T13:49:36.050Z,6.5
2017-12-21T13:50:38.818Z,6.4
2017-12-21T13:51:41.315Z,6.5
2017-12-21T13:52:43.820Z,6.4
2017-12-21T13:53:46.318Z,6.4
2017-12-21T13:54:48.814Z,6.5
2017-12-21T13:55:51.315Z,6.5
2017-12-21T13:56:54.100Z,6.5
2017-12-21T13:57:56.599Z,6.5
2017-12-21T13:58:59.087Z,6.5
2017-12-21T14:00:01.873Z,6.5
2017-12-21T14:01:04.378Z,6.4
2017-12-21T14:02:06.861Z,6.5
2017-12-21T14:03:09.362Z,6.5
2017-12-21T14:04:11.860Z,6.4
2017-12-21T14:05:14.359Z,6.4
2017-12-21T14:06:17.149Z,6.4
2017-12-21T14:07:19.641Z,6.5
2017-12-21T14:08:22.130Z,6.4
2017-12-21T14:09:24.649Z,6.4
2017-12-21T14:10:27.191Z,6.4
2017-12-21T14:11:29.632Z,6.4
2017-12-21T14:12:32.128Z,6.4
2017-12-21T14:13:34.626Z,6.4
2017-12-21T14:14:37.127Z,6.4
2017-12-21T14:15:39.631Z,6.4
2017-12-21T14:16:42.394Z,6.4
2017-12-21T14:17:44.892Z,6.4
2017-12-21T14:18:47.391Z,6.4
2017-12-21T14:19:50.177Z,6.4
2017-12-21T14:20:52.665Z,6.4
2017-12-21T14:21:55.160Z,6.4
2017-12-21T14:22:57.940Z,6.4
2017-12-21T14:24:00.461Z,6.3
2017-12-21T14:25:02.955Z,6.3